createdAt,value
2022-09-17T00:00:56.050Z,98822.81
2022-09-17T00:01:57.874Z,98821.84
2022-09-17T00:02:59.819Z,98820.20
2022-09-17T00:04:02.414Z,98828.22
2022-09-17T00:05:04.873Z,98834.48
2022-09-17T00:06:09.448Z,98830.30
2022-09-17T00:07:11.548Z,98830.71
2022-09-17T00:08:14.388Z,98837.79
2022-09-17T00:09:16.992Z,98843.08
2022-09-17T00:10:20.282Z,98853.16
2022-09-17T00:11:26.118Z,98852.93
2022-09-17T00:12:28.175Z,98856.47
2022-09-17T00:13:30.145Z,98849.05
2022-09-17T00:14:32.167Z,98844.77
2022-09-17T00:15:40.676Z,98841.23
2022-09-17T00:16:46.120Z,98844.37
2022-09-17T00:17:49.863Z,98846.05
2022-09-17T00:18:51.840Z,98842.51
2022-09-17T00:19:53.899Z,98832.83
2022-09-17T00:20:56.045Z,98828.33
2022-09-17T00:21:58.137Z,98833.14
2022-09-17T00:23:00.228Z,98821.48
2022-09-17T00:24:04.756Z,98823.98
2022-09-17T00:25:07.217Z,98824.91
2022-09-17T00:26:09.953Z,98820.84
2022-09-17T00:27:12.351Z,98827.10
2022-09-17T00:28:14.556Z,98824.61
2022-09-17T00:29:16.339Z,98825.53
2022-09-17T00:30:19.081Z,98817.50
2022-09-17T00:31:22.240Z,98818.13
2022-09-17T00:32:24.689Z,98818.05
2022-09-17T00:33:26.630Z,98816.00
2022-09-17T00:34:28.620Z,98811.53
2022-09-17T00:35:30.436Z,98816.34
2022-09-17T00:36:38.892Z,98812.39
2022-09-17T00:37:40.743Z,98813.31
2022-09-17T00:38:42.592Z,98813.64
2022-09-17T00:39:44.429Z,98824.08
2022-09-17T00:40:46.588Z,98830.74
2022-09-17T00:41:48.579Z,98833.02
2022-09-17T00:42:50.462Z,98830.83
2022-09-17T00:43:55.420Z,98826.35
2022-09-17T00:44:58.612Z,98816.03
2022-09-17T00:46:01.658Z,98810.71
2022-09-17T00:47:04.278Z,98808.22
2022-09-17T00:48:08.334Z,98801.95
2022-09-17T00:49:14.305Z,98795.26
2022-09-17T00:50:20.795Z,98802.14
2022-09-17T00:51:26.442Z,98803.38
2022-09-17T00:52:39.034Z,98808.41
2022-09-17T00:53:41.792Z,98810.27
2022-09-17T00:54:47.407Z,98813.03
2022-09-17T00:55:55.926Z,98819.63
2022-09-17T00:56:58.374Z,98829.20
2022-09-17T00:58:03.189Z,98829.59
2022-09-17T00:59:06.651Z,98836.84
2022-09-17T01:00:10.333Z,98833.59
2022-09-17T01:01:12.721Z,98830.11
2022-09-17T01:02:15.774Z,98835.53
2022-09-17T01:03:17.996Z,98847.38
2022-09-17T01:04:22.611Z,98842.48
2022-09-17T01:06:44.091Z,98843.95
2022-09-17T01:07:56.302Z,98847.99
2022-09-17T01:09:31.331Z,98843.81
2022-09-17T01:11:12.194Z,98832.84
2022-09-17T01:12:30.066Z,98825.86
2022-09-17T01:13:49.595Z,98823.91
2022-09-17T01:15:30.479Z,98828.18
2022-09-17T01:16:58.253Z,98835.61
2022-09-17T01:18:26.473Z,98831.69
2022-09-17T01:19:32.106Z,98838.36
2022-09-17T01:20:54.543Z,98832.97
2022-09-17T01:22:10.059Z,98839.75
2022-09-17T01:23:24.819Z,98849.52
2022-09-17T01:24:33.999Z,98855.66
2022-09-17T01:26:05.428Z,98850.34
2022-09-17T01:27:11.092Z,98843.13
2022-09-17T01:28:28.344Z,98841.45
2022-09-17T01:29:57.620Z,98838.95
2022-09-17T01:31:06.741Z,98842.23
2022-09-17T01:32:27.674Z,98844.20
2022-09-17T01:33:36.402Z,98848.38
2022-09-17T01:34:53.931Z,98843.99
2022-09-17T01:35:59.519Z,98852.00
2022-09-17T01:37:17.149Z,98851.45
2022-09-17T01:38:31.928Z,98850.70
2022-09-17T01:39:43.937Z,98854.80
2022-09-17T01:40:55.795Z,98862.02
2022-09-17T01:42:15.974Z,98864.63
2022-09-17T01:43:33.364Z,98860.66
2022-09-17T01:44:41.965Z,98858.69
2022-09-17T01:45:53.437Z,98858.03
2022-09-17T01:46:59.234Z,98848.09
2022-09-17T01:48:16.415Z,98844.30
2022-09-17T01:49:21.381Z,98851.08
2022-09-17T01:50:31.388Z,98859.61
2022-09-17T01:51:40.212Z,98860.46
2022-09-17T01:52:45.341Z,98857.95
2022-09-17T01:54:03.782Z,98866.02
2022-09-17T01:55:10.003Z,98860.43
2022-09-17T01:56:16.961Z,98868.70
2022-09-17T01:57:31.478Z,98863.70
2022-09-17T01:58:37.389Z,98866.96
2022-09-17T01:59:48.953Z,98864.46
2022-09-17T02:00:54.742Z,98872.61
2022-09-17T02:02:13.473Z,98871.96
2022-09-17T02:03:22.404Z,98867.33
2022-09-17T02:04:34.494Z,98867.02
2022-09-17T02:05:48.246Z,98869.45
2022-09-17T02:06:53.988Z,98859.58
2022-09-17T02:07:59.882Z,98858.65
2022-09-17T02:09:09.991Z,98866.45
2022-09-17T02:10:16.418Z,98870.92
2022-09-17T02:11:19.896Z,98862.56
2022-09-17T02:12:25.513Z,98864.52
2022-09-17T02:13:34.013Z,98869.73
2022-09-17T02:14:40.539Z,98872.61
2022-09-17T02:15:46.691Z,98866.69
2022-09-17T02:16:52.466Z,98866.69
2022-09-17T02:18:04.373Z,98865.94
2022-09-17T02:19:15.448Z,98855.80
2022-09-17T02:20:22.952Z,98860.73
2022-09-17T02:21:30.299Z,98859.05
2022-09-17T02:22:45.393Z,98853.29
2022-09-17T02:23:53.990Z,98851.41
2022-09-17T02:25:12.450Z,98847.48
2022-09-17T02:26:19.256Z,98849.80
2022-09-17T02:27:31.342Z,98851.95
2022-09-17T02:28:39.544Z,98848.38
2022-09-17T02:29:44.212Z,98850.70
2022-09-17T02:30:46.479Z,98857.59
2022-09-17T02:31:49.590Z,98856.16
2022-09-17T02:32:52.928Z,98860.55
2022-09-17T02:33:58.590Z,98863.40
2022-09-17T02:35:00.775Z,98859.09
2022-09-17T02:36:03.780Z,98867.19
2022-09-17T02:37:07.204Z,98857.70
2022-09-17T02:38:09.351Z,98862.33
2022-09-17T02:39:11.261Z,98865.76
2022-09-17T02:40:17.205Z,98864.58
2022-09-17T02:41:22.733Z,98860.09
2022-09-17T02:42:31.161Z,98863.05
2022-09-17T02:43:48.957Z,98869.29
2022-09-17T02:45:15.979Z,98858.34
2022-09-17T02:46:25.383Z,98863.44
2022-09-17T02:47:40.185Z,98862.16
2022-09-17T02:48:48.839Z,98860.09
2022-09-17T02:49:57.509Z,98865.76
2022-09-17T02:51:05.854Z,98869.54
2022-09-17T02:52:29.800Z,98871.03
2022-09-17T02:53:38.521Z,98862.89
2022-09-17T02:54:53.070Z,98859.17
2022-09-17T02:56:22.588Z,98855.00
2022-09-17T02:57:31.549Z,98854.69
2022-09-17T02:58:39.885Z,98854.95
2022-09-17T02:59:54.347Z,98859.20
2022-09-17T03:01:00.085Z,98855.88
2022-09-17T03:02:15.834Z,98853.11
2022-09-17T03:03:27.642Z,98848.11
2022-09-17T03:04:32.132Z,98846.62
2022-09-17T03:05:37.785Z,98840.59
2022-09-17T03:06:40.672Z,98838.52
2022-09-17T03:07:42.977Z,98829.88
2022-09-17T03:08:45.787Z,98830.70
2022-09-17T03:09:48.136Z,98844.58
2022-09-17T03:10:50.234Z,98837.08
2022-09-17T03:11:52.072Z,98836.48
2022-09-17T03:12:54.251Z,98827.17
2022-09-17T03:13:56.156Z,98829.48
2022-09-17T03:14:57.875Z,98834.30
2022-09-17T03:15:59.772Z,98830.97
2022-09-17T03:17:01.717Z,98830.97
2022-09-17T03:18:04.152Z,98825.96
2022-09-17T03:19:05.935Z,98826.78
2022-09-17T03:20:09.458Z,98828.77
2022-09-17T03:21:11.310Z,98843.06
2022-09-17T03:22:13.172Z,98840.45
2022-09-17T03:23:14.905Z,98852.45
2022-09-17T03:24:16.860Z,98834.61
2022-09-17T03:25:18.886Z,98844.43
2022-09-17T03:26:21.763Z,98841.59
2022-09-17T03:27:23.609Z,98844.74
2022-09-17T03:28:25.585Z,98852.04
2022-09-17T03:29:27.402Z,98852.04
2022-09-17T03:30:29.616Z,98853.18
2022-09-17T03:31:32.278Z,98855.38
2022-09-17T03:32:34.600Z,98850.17
2022-09-17T03:33:36.616Z,98854.86
2022-09-17T03:34:38.453Z,98843.92
2022-09-17T03:35:45.061Z,98851.20
2022-09-17T03:36:47.122Z,98851.20
2022-09-17T03:37:49.003Z,98853.41
2022-09-17T03:38:55.856Z,98850.17
2022-09-17T03:39:57.834Z,98853.71
2022-09-17T03:41:03.390Z,98846.09
2022-09-17T03:42:05.839Z,98839.63
2022-09-17T03:43:07.931Z,98842.64
2022-09-17T03:44:09.817Z,98840.14
2022-09-17T03:45:14.277Z,98850.78
2022-09-17T03:46:17.535Z,98840.11
2022-09-17T03:47:19.567Z,98846.38
2022-09-17T03:48:21.980Z,98848.45
2022-09-17T03:49:24.332Z,98852.85
2022-09-17T03:50:27.485Z,98839.95
2022-09-17T03:51:29.527Z,98842.44
2022-09-17T03:52:31.531Z,98849.96
2022-09-17T03:53:33.673Z,98848.06
2022-09-17T03:54:36.021Z,98860.20
2022-09-17T03:55:38.839Z,98859.15
2022-09-17T03:56:40.903Z,98864.56
2022-09-17T03:57:43.745Z,98858.92
2022-09-17T03:58:45.686Z,98866.44
2022-09-17T03:59:47.844Z,98856.44
2022-09-17T04:00:50.200Z,98860.17
2022-09-17T04:01:52.603Z,98862.78
2022-09-17T04:02:54.662Z,98867.80
2022-09-17T04:03:57.153Z,98857.98
2022-09-17T04:04:59.364Z,98871.66
2022-09-17T04:06:01.433Z,98862.70
2022-09-17T04:07:03.504Z,98867.69
2022-09-17T04:08:05.702Z,98869.78
2022-09-17T04:09:07.547Z,98869.17
2022-09-17T04:10:10.222Z,98864.77
2022-09-17T04:11:12.333Z,98859.77
2022-09-17T04:12:14.217Z,98851.20
2022-09-17T04:13:16.490Z,98854.36
2022-09-17T04:14:18.382Z,98851.32
2022-09-17T04:15:20.142Z,98848.80
2022-09-17T04:16:22.381Z,98856.13
2022-09-17T04:17:24.578Z,98864.34
2022-09-17T04:18:26.562Z,98866.95
2022-09-17T04:19:28.306Z,98874.14
2022-09-17T04:20:30.450Z,98879.36
2022-09-17T04:21:32.372Z,98870.05
2022-09-17T04:22:34.200Z,98877.69
2022-09-17T04:23:36.069Z,98882.60
2022-09-17T04:24:37.802Z,98884.16
2022-09-17T04:25:40.244Z,98883.56
2022-09-17T04:26:42.268Z,98887.30
2022-09-17T04:27:45.026Z,98885.54
2022-09-17T04:28:47.006Z,98878.50
2022-09-17T04:29:49.351Z,98885.06
2022-09-17T04:30:51.372Z,98885.17
2022-09-17T04:31:53.364Z,98882.38
2022-09-17T04:32:55.083Z,98888.52
2022-09-17T04:33:57.058Z,98887.67
2022-09-17T04:34:59.435Z,98886.84
2022-09-17T04:36:02.765Z,98891.53
2022-09-17T04:37:04.849Z,98892.25
2022-09-17T04:38:08.027Z,98890.05
2022-09-17T04:39:10.095Z,98900.80
2022-09-17T04:40:14.483Z,98899.57
2022-09-17T04:41:16.518Z,98901.36
2022-09-17T04:42:18.943Z,98898.91
2022-09-17T04:43:20.723Z,98900.81
2022-09-17T04:44:22.714Z,98896.01
2022-09-17T04:45:25.475Z,98903.41
2022-09-17T04:46:28.062Z,98908.52
2022-09-17T04:47:30.058Z,98908.11
2022-09-17T04:48:32.271Z,98918.03
2022-09-17T04:49:34.469Z,98909.16
2022-09-17T04:50:36.472Z,98909.16
2022-09-17T04:51:38.478Z,98906.88
2022-09-17T04:52:44.394Z,98906.88
2022-09-17T04:53:46.342Z,98903.64
2022-09-17T04:54:48.732Z,98903.08
2022-09-17T04:55:50.954Z,98903.30
2022-09-17T04:56:52.855Z,98893.40
2022-09-17T04:57:55.957Z,98892.80
2022-09-17T04:58:58.296Z,98895.82
2022-09-17T05:00:00.977Z,98887.44
2022-09-17T05:01:03.027Z,98886.62
2022-09-17T05:02:05.037Z,98883.30
2022-09-17T05:03:07.297Z,98885.80
2022-09-17T05:04:09.969Z,98880.10
2022-09-17T05:05:12.488Z,98878.73
2022-09-17T05:06:15.000Z,98871.04
2022-09-17T05:07:16.880Z,98872.07
2022-09-17T05:08:19.364Z,98873.55
2022-09-17T05:09:21.146Z,98873.63
2022-09-17T05:10:23.953Z,98871.45
2022-09-17T05:11:25.755Z,98866.64
2022-09-17T05:12:31.240Z,98870.72
2022-09-17T05:13:31.647Z,98877.30
2022-09-17T05:14:33.445Z,98883.99
2022-09-17T05:15:35.291Z,98891.50
2022-09-17T05:16:38.314Z,98895.36
2022-09-17T05:17:40.714Z,98887.94
2022-09-17T05:18:42.554Z,98898.81
2022-09-17T05:19:44.683Z,98903.80
2022-09-17T05:20:46.602Z,98907.12
2022-09-17T05:21:48.350Z,98901.08
2022-09-17T05:22:52.742Z,98899.52
2022-09-17T05:23:55.608Z,98906.70
2022-09-17T05:24:58.104Z,98897.95
2022-09-17T05:26:00.825Z,98902.94
2022-09-17T05:27:03.521Z,98904.09
2022-09-17T05:28:05.514Z,98898.55
2022-09-17T05:29:07.453Z,98906.70
2022-09-17T05:30:10.994Z,98902.45
2022-09-17T05:31:12.961Z,98903.80
2022-09-17T05:32:15.352Z,98904.43
2022-09-17T05:33:17.757Z,98906.92
2022-09-17T05:34:19.541Z,98904.23
2022-09-17T05:35:21.291Z,98907.99
2022-09-17T05:36:23.508Z,98907.16
2022-09-17T05:37:25.462Z,98901.11
2022-09-17T05:38:27.346Z,98899.33
2022-09-17T05:39:29.232Z,98901.52
2022-09-17T05:40:32.284Z,98905.89
2022-09-17T05:41:34.396Z,98898.70
2022-09-17T05:42:36.409Z,98901.09
2022-09-17T05:43:38.759Z,98899.64
2022-09-17T05:44:40.565Z,98900.58
2022-09-17T05:45:44.037Z,98902.78
2022-09-17T05:46:47.170Z,98907.89
2022-09-17T05:47:57.588Z,98909.45
2022-09-17T05:48:59.740Z,98908.92
2022-09-17T05:50:02.556Z,98902.53
2022-09-17T05:51:05.286Z,98905.02
2022-09-17T05:52:07.736Z,98900.86
2022-09-17T05:53:13.496Z,98894.27
2022-09-17T05:54:15.442Z,98893.09
2022-09-17T05:55:19.069Z,98886.20
2022-09-17T05:56:21.398Z,98885.94
2022-09-17T05:57:23.852Z,98892.19
2022-09-17T05:58:26.725Z,98898.41
2022-09-17T05:59:28.609Z,98893.13
2022-09-17T06:00:30.610Z,98897.91
2022-09-17T06:01:32.496Z,98888.05
2022-09-17T06:02:34.491Z,98893.69
2022-09-17T06:03:36.897Z,98901.16
2022-09-17T06:04:38.791Z,98899.55
2022-09-17T06:05:41.365Z,98899.91
2022-09-17T06:06:43.585Z,98905.33
2022-09-17T06:07:46.092Z,98908.30
2022-09-17T06:08:48.574Z,98913.31
2022-09-17T06:09:51.625Z,98912.73
2022-09-17T06:11:00.182Z,98907.97
2022-09-17T06:11:59.402Z,98912.16
2022-09-17T06:13:01.131Z,98913.97
2022-09-17T06:14:03.190Z,98908.98
2022-09-17T06:15:05.899Z,98912.80
2022-09-17T06:16:08.497Z,98913.88
2022-09-17T06:17:10.558Z,98909.23
2022-09-17T06:18:12.576Z,98910.11
2022-09-17T06:19:14.359Z,98906.48
2022-09-17T06:20:17.397Z,98913.00
2022-09-17T06:21:20.102Z,98913.24
2022-09-17T06:22:23.146Z,98912.63
2022-09-17T06:23:26.622Z,98913.84
2022-09-17T06:24:28.597Z,98917.34
2022-09-17T06:25:31.508Z,98915.55
2022-09-17T06:26:33.453Z,98917.34
2022-09-17T06:27:35.760Z,98899.02
2022-09-17T06:28:41.436Z,98899.02
2022-09-17T06:29:41.499Z,98912.78
2022-09-17T06:30:43.398Z,98910.63
2022-09-17T06:31:47.815Z,98910.43
2022-09-17T06:32:49.995Z,98910.43
2022-09-17T06:33:51.879Z,98913.19
2022-09-17T06:34:54.969Z,98899.17
2022-09-17T06:35:59.439Z,98898.86
2022-09-17T06:37:03.769Z,98895.20
2022-09-17T06:38:06.217Z,98884.24
2022-09-17T06:39:08.585Z,98887.92
2022-09-17T06:40:11.625Z,98891.38
2022-09-17T06:41:13.639Z,98899.70
2022-09-17T06:42:15.594Z,98904.46
2022-09-17T06:43:18.139Z,98903.37
2022-09-17T06:44:21.168Z,98905.64
2022-09-17T06:45:23.131Z,98905.16
2022-09-17T06:46:25.144Z,98919.58
2022-09-17T06:47:27.067Z,98918.14
2022-09-17T06:48:29.906Z,98912.77
2022-09-17T06:49:32.225Z,98911.81
2022-09-17T06:50:37.277Z,98913.12
2022-09-17T06:51:39.167Z,98920.00
2022-09-17T06:52:53.101Z,98914.66
2022-09-17T06:53:54.951Z,98920.85
2022-09-17T06:54:56.711Z,98912.98
2022-09-17T06:56:05.266Z,98911.45
2022-09-17T06:57:06.308Z,98906.37
2022-09-17T06:58:09.241Z,98908.50
2022-09-17T06:59:11.224Z,98913.02
2022-09-17T07:00:15.571Z,98913.61
2022-09-17T07:01:17.580Z,98917.52
2022-09-17T07:02:20.210Z,98917.97
2022-09-17T07:03:23.434Z,98911.28
2022-09-17T07:04:25.452Z,98912.48
2022-09-17T07:05:28.889Z,98915.59
2022-09-17T07:06:35.920Z,98911.03
2022-09-17T07:07:37.790Z,98912.96
2022-09-17T07:08:39.748Z,98914.38
2022-09-17T07:09:42.307Z,98910.92
2022-09-17T07:10:44.751Z,98919.75
2022-09-17T07:11:46.570Z,98920.81
2022-09-17T07:12:50.106Z,98918.45
2022-09-17T07:13:52.156Z,98916.33
2022-09-17T07:14:54.517Z,98919.54
2022-09-17T07:15:59.350Z,98919.45
2022-09-17T07:17:01.767Z,98917.77
2022-09-17T07:18:08.334Z,98920.00
2022-09-17T07:19:11.160Z,98918.82
2022-09-17T07:20:15.211Z,98916.43
2022-09-17T07:21:18.310Z,98919.77
2022-09-17T07:22:20.173Z,98923.02
2022-09-17T07:23:24.577Z,98915.38
2022-09-17T07:24:32.046Z,98916.43
2022-09-17T07:25:35.134Z,98922.39
2022-09-17T07:26:36.980Z,98916.20
2022-09-17T07:27:38.978Z,98910.10
2022-09-17T07:28:42.113Z,98912.63
2022-09-17T07:29:44.607Z,98915.48
2022-09-17T07:30:46.616Z,98924.20
2022-09-17T07:31:48.857Z,98926.42
2022-09-17T07:32:50.810Z,98923.70
2022-09-17T07:33:53.682Z,98920.81
2022-09-17T07:34:55.502Z,98911.89
2022-09-17T07:36:02.818Z,98903.97
2022-09-17T07:37:04.762Z,98903.97
2022-09-17T07:38:06.650Z,98912.79
2022-09-17T07:39:09.418Z,98914.92
2022-09-17T07:40:11.834Z,98910.14
2022-09-17T07:41:16.713Z,98907.39
2022-09-17T07:42:18.719Z,98913.80
2022-09-17T07:43:21.526Z,98917.50
2022-09-17T07:44:24.142Z,98918.19
2022-09-17T07:45:26.108Z,98916.78
2022-09-17T07:46:30.883Z,98914.03
2022-09-17T07:47:36.514Z,98915.70
2022-09-17T07:48:39.101Z,98922.39
2022-09-17T07:49:40.990Z,98925.64
2022-09-17T07:50:43.272Z,98924.79
2022-09-17T07:51:45.609Z,98926.72
2022-09-17T07:52:48.045Z,98926.59
2022-09-17T07:53:58.606Z,98933.41
2022-09-17T07:55:01.272Z,98933.41
2022-09-17T07:56:03.720Z,98929.70
2022-09-17T07:57:06.689Z,98918.98
2022-09-17T07:58:08.830Z,98922.92
2022-09-17T07:59:10.917Z,98916.33
2022-09-17T08:00:14.886Z,98909.48
2022-09-17T08:01:19.637Z,98908.28
2022-09-17T08:02:24.153Z,98907.70
2022-09-17T08:03:25.664Z,98900.66
2022-09-17T08:04:28.433Z,98907.83
2022-09-17T08:05:32.601Z,98907.55
2022-09-17T08:06:38.686Z,98903.75
2022-09-17T08:07:40.698Z,98908.50
2022-09-17T08:08:44.119Z,98908.23
2022-09-17T08:09:46.969Z,98914.07
2022-09-17T08:10:49.318Z,98905.84
2022-09-17T08:11:56.006Z,98913.25
2022-09-17T08:12:57.309Z,98909.09
2022-09-17T08:13:59.259Z,98898.70
2022-09-17T08:15:01.472Z,98904.66
2022-09-17T08:16:09.645Z,98898.66
2022-09-17T08:17:12.071Z,98897.13
2022-09-17T08:18:17.357Z,98890.68
2022-09-17T08:19:19.655Z,98890.52
2022-09-17T08:20:23.028Z,98894.34
2022-09-17T08:21:26.292Z,98889.03
2022-09-17T08:22:29.251Z,98903.08
2022-09-17T08:23:36.940Z,98897.38
2022-09-17T08:24:39.294Z,98906.58
2022-09-17T08:25:41.085Z,98911.96
2022-09-17T08:26:43.048Z,98912.33
2022-09-17T08:27:45.253Z,98906.50
2022-09-17T08:28:49.348Z,98914.82
2022-09-17T08:29:51.348Z,98909.84
2022-09-17T08:30:55.393Z,98918.08
2022-09-17T08:31:58.034Z,98915.00
2022-09-17T08:32:59.904Z,98906.27
2022-09-17T08:34:01.843Z,98915.98
2022-09-17T08:35:04.948Z,98920.78
2022-09-17T08:36:11.021Z,98919.33
2022-09-17T08:37:13.805Z,98924.52
2022-09-17T08:38:16.183Z,98922.61
2022-09-17T08:39:18.171Z,98916.14
2022-09-17T08:40:23.743Z,98922.23
2022-09-17T08:41:55.296Z,98925.69
2022-09-17T08:43:02.011Z,98926.02
2022-09-17T08:44:14.162Z,98932.80
2022-09-17T08:45:18.349Z,98923.98
2022-09-17T08:46:24.161Z,98932.53
2022-09-17T08:47:29.892Z,98919.55
2022-09-17T08:48:38.335Z,98924.80
2022-09-17T08:49:46.865Z,98923.02
2022-09-17T08:50:50.447Z,98926.70
2022-09-17T08:51:56.093Z,98925.17
2022-09-17T08:53:20.031Z,98930.32
2022-09-17T08:54:28.407Z,98921.15
2022-09-17T08:55:52.579Z,98920.80
2022-09-17T08:58:41.832Z,98918.45
2022-09-17T09:00:02.947Z,98916.72
2022-09-17T09:01:27.302Z,98916.85
2022-09-17T09:02:45.073Z,98923.19
2022-09-17T09:04:07.182Z,98918.06
2022-09-17T09:05:27.852Z,98907.64
2022-09-17T09:06:33.988Z,98905.02
2022-09-17T09:07:40.337Z,98910.70
2022-09-17T09:08:48.797Z,98906.55
2022-09-17T09:11:28.734Z,98904.61
2022-09-17T09:12:34.643Z,98894.48
2022-09-17T09:15:03.823Z,98900.88
2022-09-17T09:16:21.694Z,98907.06
2022-09-17T09:17:27.473Z,98913.08
2022-09-17T09:18:32.314Z,98918.00
2022-09-17T09:19:40.778Z,98906.48
2022-09-17T09:20:49.513Z,98910.06
2022-09-17T09:22:27.768Z,98909.18
2022-09-17T09:23:52.802Z,98906.80
2022-09-17T09:24:58.395Z,98907.89
2022-09-17T09:26:21.049Z,98898.92
2022-09-17T09:27:33.207Z,98903.94
2022-09-17T09:28:45.505Z,98904.23
2022-09-17T09:30:11.772Z,98904.11
2022-09-17T09:31:26.391Z,98903.22
2022-09-17T09:32:54.760Z,98897.83
2022-09-17T09:33:58.980Z,98898.34
2022-09-17T09:35:04.802Z,98894.05
2022-09-17T09:36:13.823Z,98894.05
2022-09-17T09:37:19.962Z,98904.30
2022-09-17T09:38:31.006Z,98898.34
2022-09-17T09:39:41.290Z,98903.59
2022-09-17T09:40:54.649Z,98899.30
2022-09-17T09:43:14.277Z,98902.44
2022-09-17T09:44:17.357Z,98901.41
2022-09-17T09:46:48.756Z,98912.05
2022-09-17T09:47:57.067Z,98912.69
2022-09-17T09:49:08.730Z,98912.56
2022-09-17T09:50:23.914Z,98915.90
2022-09-17T09:51:41.944Z,98913.27
2022-09-17T09:52:53.273Z,98918.97
2022-09-17T09:54:32.683Z,98912.77
2022-09-17T09:55:58.362Z,98908.23
2022-09-17T09:57:05.157Z,98907.00
2022-09-17T09:58:26.133Z,98897.66
2022-09-17T09:59:28.199Z,98912.45
2022-09-17T10:00:40.772Z,98909.63
2022-09-17T10:01:44.273Z,98911.30
2022-09-17T10:02:48.256Z,98909.11
2022-09-17T10:03:52.665Z,98912.75
2022-09-17T10:04:58.350Z,98915.89
2022-09-17T10:06:03.954Z,98923.39
2022-09-17T10:07:08.096Z,98919.61
2022-09-17T10:08:14.142Z,98929.02
2022-09-17T10:09:18.836Z,98924.69
2022-09-17T10:10:22.321Z,98923.59
2022-09-17T10:11:27.387Z,98932.94
2022-09-17T10:12:29.365Z,98938.43
2022-09-17T10:13:33.689Z,98935.13
2022-09-17T10:14:38.401Z,98936.08
2022-09-17T10:15:40.771Z,98928.34
2022-09-17T10:16:42.775Z,98931.20
2022-09-17T10:17:46.488Z,98929.02
2022-09-17T10:18:50.097Z,98932.30
2022-09-17T10:20:07.939Z,98931.34
2022-09-17T10:21:30.849Z,98931.20
2022-09-17T10:22:37.260Z,98914.36
2022-09-17T10:23:43.377Z,98911.69
2022-09-17T10:24:46.451Z,98908.35
2022-09-17T10:25:49.484Z,98919.09
2022-09-17T10:26:54.078Z,98916.84
2022-09-17T10:27:58.999Z,98918.58
2022-09-17T10:30:19.268Z,98916.53
2022-09-17T10:31:22.091Z,98925.70
2022-09-17T10:32:24.827Z,98924.98
2022-09-17T10:33:29.539Z,98918.72
2022-09-17T10:34:32.985Z,98918.72
2022-09-17T10:35:34.974Z,98911.52
2022-09-17T10:36:41.843Z,98897.05
2022-09-17T10:37:53.334Z,98897.05
2022-09-17T10:38:55.415Z,98910.27
2022-09-17T10:39:57.373Z,98909.33
2022-09-17T10:41:20.765Z,98910.50
2022-09-17T10:42:22.732Z,98910.54
2022-09-17T10:43:24.627Z,98916.83
2022-09-17T10:44:32.110Z,98913.66
2022-09-17T10:45:37.729Z,98921.05
2022-09-17T10:46:40.330Z,98926.02
2022-09-17T10:47:43.577Z,98915.43
2022-09-17T10:49:10.525Z,98910.50
2022-09-17T10:50:18.981Z,98915.29
2022-09-17T10:51:23.829Z,98914.37
2022-09-17T10:52:32.579Z,98911.95
2022-09-17T10:53:38.343Z,98918.20
2022-09-17T10:54:54.462Z,98926.60
2022-09-17T10:56:00.082Z,98927.17
2022-09-17T10:57:05.527Z,98924.30
2022-09-17T10:58:17.225Z,98925.56
2022-09-17T10:59:25.736Z,98924.73
2022-09-17T11:00:47.469Z,98910.37
2022-09-17T11:02:05.338Z,98923.31
2022-09-17T11:03:17.267Z,98925.87
2022-09-17T11:04:32.049Z,98921.08
2022-09-17T11:05:55.962Z,98921.00
2022-09-17T11:07:13.754Z,98929.08
2022-09-17T11:09:48.606Z,98918.48
2022-09-17T11:11:12.589Z,98915.75
2022-09-17T11:12:40.950Z,98919.48
2022-09-17T11:13:56.644Z,98918.41
2022-09-17T11:15:15.285Z,98919.48
2022-09-17T11:16:41.836Z,98909.85
2022-09-17T11:17:59.883Z,98920.27
2022-09-17T11:19:11.905Z,98916.47
2022-09-17T11:20:18.892Z,98907.12
2022-09-17T11:21:27.458Z,98907.06
2022-09-17T11:22:59.350Z,98906.79
2022-09-17T11:24:27.648Z,98905.28
2022-09-17T11:25:58.452Z,98906.48
2022-09-17T11:27:11.390Z,98901.67
2022-09-17T11:28:25.973Z,98903.22
2022-09-17T11:30:02.345Z,98911.81
2022-09-17T11:31:24.456Z,98910.78
2022-09-17T11:32:42.606Z,98909.38
2022-09-17T11:33:50.951Z,98908.47
2022-09-17T11:35:09.904Z,98900.66
2022-09-17T11:36:19.864Z,98898.62
2022-09-17T11:37:34.276Z,98901.61
2022-09-17T11:38:49.130Z,98902.25
2022-09-17T11:40:00.963Z,98901.87
2022-09-17T11:42:29.997Z,98890.63
2022-09-17T11:43:38.357Z,98889.30
2022-09-17T11:44:46.891Z,98882.20
2022-09-17T11:45:58.556Z,98883.34
2022-09-17T11:47:31.855Z,98877.23
2022-09-17T11:48:40.663Z,98875.88
2022-09-17T11:49:49.233Z,98879.86
2022-09-17T11:51:04.325Z,98878.79
2022-09-17T11:52:09.912Z,98874.41
2022-09-17T11:53:18.268Z,98874.78
2022-09-17T11:54:29.634Z,98872.15
2022-09-17T11:55:35.269Z,98860.81
2022-09-17T11:56:46.629Z,98856.69
2022-09-17T11:57:52.200Z,98850.61
2022-09-17T11:59:03.851Z,98847.02
2022-09-17T12:00:19.668Z,98837.06
2022-09-17T12:01:31.331Z,98841.63
2022-09-17T12:02:43.497Z,98847.87
2022-09-17T12:04:05.143Z,98836.67
2022-09-17T12:05:10.992Z,98846.62
2022-09-17T12:06:18.703Z,98849.25
2022-09-17T12:07:31.366Z,98847.58
2022-09-17T12:08:43.553Z,98855.56
2022-09-17T12:09:49.158Z,98849.45
2022-09-17T12:11:06.514Z,98847.79
2022-09-17T12:12:38.008Z,98851.66
2022-09-17T12:13:39.116Z,98855.08
2022-09-17T12:15:01.469Z,98859.38
2022-09-17T12:16:22.061Z,98857.70
2022-09-17T12:17:27.849Z,98857.70
2022-09-17T12:18:45.753Z,98858.52
2022-09-17T12:19:51.427Z,98857.00
2022-09-17T12:20:57.240Z,98862.25
2022-09-17T12:22:02.897Z,98858.70
2022-09-17T12:23:08.947Z,98853.44
2022-09-17T12:24:15.041Z,98843.50
2022-09-17T12:25:17.716Z,98840.17
2022-09-17T12:26:29.984Z,98834.48
2022-09-17T12:27:47.602Z,98831.72
2022-09-17T12:29:05.067Z,98829.91
2022-09-17T12:30:21.893Z,98837.11
2022-09-17T12:31:28.416Z,98842.08
2022-09-17T12:32:58.490Z,98835.63
2022-09-17T12:34:20.394Z,98837.54
2022-09-17T12:35:41.032Z,98846.28
2022-09-17T12:36:43.196Z,98851.53
2022-09-17T12:37:57.950Z,98851.06
2022-09-17T12:39:37.071Z,98857.00
2022-09-17T12:40:51.972Z,98861.57
2022-09-17T12:42:06.744Z,98850.95
2022-09-17T12:43:44.923Z,98847.79
2022-09-17T12:44:57.014Z,98846.41
2022-09-17T12:46:05.630Z,98836.72
2022-09-17T12:47:43.150Z,98833.41
2022-09-17T12:48:51.734Z,98827.89
2022-09-17T12:50:12.305Z,98827.47
2022-09-17T12:51:23.918Z,98829.81
2022-09-17T12:53:46.457Z,98820.97
2022-09-17T12:55:22.681Z,98822.87
2022-09-17T12:56:50.619Z,98825.22
2022-09-17T12:58:01.979Z,98834.48
2022-09-17T12:59:13.610Z,98828.27
2022-09-17T13:00:16.692Z,98836.43
2022-09-17T13:01:37.768Z,98836.12
2022-09-17T13:02:43.643Z,98846.06
2022-09-17T13:03:52.807Z,98850.14
2022-09-17T13:05:10.665Z,98855.97
2022-09-17T13:07:40.134Z,98856.31
2022-09-17T13:08:52.016Z,98853.97
2022-09-17T13:10:10.436Z,98839.48
2022-09-17T13:11:38.088Z,98831.77
2022-09-17T13:14:34.377Z,98826.10
2022-09-17T13:15:47.101Z,98831.34
2022-09-17T13:16:55.964Z,98830.52
2022-09-17T13:18:25.288Z,98841.20
2022-09-17T13:19:31.857Z,98827.08
2022-09-17T13:20:49.599Z,98827.09
2022-09-17T13:21:55.272Z,98820.19
2022-09-17T13:22:59.453Z,98821.31
2022-09-17T13:24:03.812Z,98823.53
2022-09-17T13:25:09.429Z,98826.42
2022-09-17T13:26:14.998Z,98823.52